createdAt,value
2023-05-19T00:00:37.151Z,102917.00
2023-05-19T00:03:04.951Z,102911.59
2023-05-19T00:05:31.951Z,102904.66
2023-05-19T00:08:01.254Z,102907.31
2023-05-19T00:10:31.745Z,102897.69
2023-05-19T00:12:59.068Z,102898.75
2023-05-19T00:15:25.926Z,102897.78
2023-05-19T00:17:52.563Z,102902.75
2023-05-19T00:20:19.171Z,102903.50
2023-05-19T00:22:45.853Z,102909.38
2023-05-19T00:25:12.508Z,102904.13
2023-05-19T00:27:39.105Z,102900.88
2023-05-19T00:30:06.427Z,102897.34
2023-05-19T00:32:32.992Z,102896.16
2023-05-19T00:34:59.617Z,102900.31
2023-05-19T00:37:26.399Z,102907.09
2023-05-19T00:39:53.520Z,102899.19
2023-05-19T00:42:21.417Z,102903.41
2023-05-19T00:44:47.978Z,102899.72
2023-05-19T00:47:14.515Z,102892.00
2023-05-19T00:49:41.010Z,102897.59
2023-05-19T00:52:07.726Z,102886.34
2023-05-19T00:54:34.871Z,102888.91
2023-05-19T00:57:01.575Z,102885.25
2023-05-19T00:59:28.137Z,102894.00
2023-05-19T01:01:54.683Z,102891.50
2023-05-19T01:04:21.877Z,102896.50
2023-05-19T01:06:49.722Z,102891.03
2023-05-19T01:09:18.209Z,102897.78
2023-05-19T01:11:44.749Z,102893.38
2023-05-19T01:14:11.334Z,102892.38
2023-05-19T01:16:43.446Z,102884.47
2023-05-19T01:19:31.076Z,102887.00
2023-05-19T01:22:22.846Z,102880.72
2023-05-19T01:25:21.757Z,102884.25
2023-05-19T01:28:23.507Z,102883.38
2023-05-19T01:30:54.148Z,102873.84
2023-05-19T01:34:25.103Z,102838.25
2023-05-19T01:44:12.105Z,102822.06
2023-05-19T01:54:32.431Z,102816.53
2023-05-19T02:01:36.800Z,102866.41
2023-05-19T02:04:18.393Z,102863.78
2023-05-19T02:07:16.104Z,102862.00
2023-05-19T02:10:32.561Z,102819.28
2023-05-19T02:13:16.227Z,102859.19
2023-05-19T02:16:01.330Z,102841.06
2023-05-19T02:18:31.991Z,102807.63
2023-05-19T02:21:09.704Z,102815.50
2023-05-19T02:24:28.290Z,102826.16
2023-05-19T02:27:02.395Z,102810.91
2023-05-19T02:29:46.713Z,102810.78
2023-05-19T02:32:28.289Z,102814.34
2023-05-19T02:35:00.224Z,102804.72
2023-05-19T02:37:31.677Z,102820.88
2023-05-19T02:40:04.244Z,102806.59
2023-05-19T02:42:32.083Z,102803.06
2023-05-19T02:45:13.398Z,102794.31
2023-05-19T02:47:53.492Z,102797.22
2023-05-19T02:50:28.994Z,102807.63
2023-05-19T02:53:14.898Z,102818.72
2023-05-19T02:55:49.415Z,102799.06
2023-05-19T02:58:46.963Z,102783.00
2023-05-19T03:01:16.938Z,102803.38
2023-05-19T03:03:52.232Z,102799.69
2023-05-19T03:06:31.221Z,102808.34
2023-05-19T03:09:16.210Z,102778.44
2023-05-19T03:15:39.419Z,102783.50
2023-05-19T03:18:53.240Z,102807.22
2023-05-19T03:21:30.666Z,102794.88
2023-05-19T03:24:52.304Z,102803.38
2023-05-19T03:27:54.497Z,102776.09
2023-05-19T03:33:52.068Z,102789.50
2023-05-19T03:36:39.122Z,102774.00
2023-05-19T03:42:15.618Z,102797.91
2023-05-19T03:45:06.046Z,102770.91
2023-05-19T03:51:23.270Z,102773.38
2023-05-19T04:12:49.896Z,102765.25
2023-05-19T04:16:16.058Z,102819.28
2023-05-19T04:26:42.057Z,102829.66
2023-05-19T04:32:54.012Z,102802.75
2023-05-19T04:42:09.018Z,102836.38
2023-05-19T04:48:59.882Z,102825.53
2023-05-19T04:51:41.535Z,102785.09
2023-05-19T04:54:44.300Z,102804.81
2023-05-19T05:07:13.288Z,102784.00
2023-05-19T05:13:54.011Z,102784.03
2023-05-19T05:16:23.148Z,102782.03
2023-05-19T05:18:51.998Z,102778.09
2023-05-19T05:21:24.904Z,102796.50
2023-05-19T05:23:52.544Z,102829.91
2023-05-19T05:26:29.316Z,102811.13
2023-05-19T05:28:56.340Z,102832.66
2023-05-19T05:31:27.442Z,102791.69
2023-05-19T05:33:57.056Z,102795.94
2023-05-19T05:36:26.103Z,102812.56
2023-05-19T05:39:02.521Z,102820.16
2023-05-19T05:41:37.553Z,102779.22
2023-05-19T05:44:07.848Z,102786.81
2023-05-19T05:46:34.987Z,102831.25
2023-05-19T05:49:03.637Z,102807.63
2023-05-19T05:51:36.544Z,102823.78
2023-05-19T05:54:08.220Z,102814.91
2023-05-19T05:56:38.099Z,102797.63
2023-05-19T05:59:06.036Z,102796.00
2023-05-19T06:01:35.845Z,102776.06
2023-05-19T06:04:05.665Z,102797.06
2023-05-19T06:06:38.956Z,102796.91
2023-05-19T06:09:06.337Z,102805.47
2023-05-19T06:11:36.138Z,102789.78
2023-05-19T06:14:07.941Z,102791.75
2023-05-19T06:16:40.511Z,102790.66
2023-05-19T06:19:13.396Z,102822.69
2023-05-19T06:21:43.191Z,102819.94
2023-05-19T06:24:11.692Z,102796.59
2023-05-19T06:26:38.495Z,102805.84
2023-05-19T06:29:14.515Z,102812.91
2023-05-19T06:31:47.906Z,102806.22
2023-05-19T06:51:36.636Z,102810.56
2023-05-19T07:06:55.421Z,102812.28
2023-05-19T07:09:27.304Z,102792.84
2023-05-19T07:11:56.664Z,102804.09
2023-05-19T07:14:26.042Z,102775.38
2023-05-19T07:16:57.938Z,102767.50
2023-05-19T07:19:25.680Z,102795.91
2023-05-19T07:21:52.533Z,102760.22
2023-05-19T07:24:21.672Z,102785.59
2023-05-19T07:26:50.094Z,102780.63
2023-05-19T07:29:18.953Z,102784.34
2023-05-19T07:31:54.515Z,102798.22
2023-05-19T07:34:26.737Z,102758.25
2023-05-19T07:36:58.508Z,102764.47
2023-05-19T07:39:33.327Z,102775.81
2023-05-19T07:48:42.381Z,102798.13
2023-05-19T07:51:14.594Z,102786.72
2023-05-19T07:53:47.191Z,102798.81
2023-05-19T07:56:17.630Z,102797.13
2023-05-19T07:58:50.616Z,102796.09
2023-05-19T08:04:25.974Z,102790.03
2023-05-19T08:06:56.084Z,102792.72
2023-05-19T08:09:30.819Z,102787.53
2023-05-19T08:12:01.540Z,102746.66
2023-05-19T08:14:28.263Z,102757.00
2023-05-19T08:16:55.314Z,102756.69
2023-05-19T08:19:29.516Z,102738.91
2023-05-19T08:22:12.634Z,102759.06
2023-05-19T08:27:41.966Z,102774.94
2023-05-19T08:30:10.419Z,102748.19
2023-05-19T08:32:49.576Z,102757.88
2023-05-19T08:35:19.723Z,102730.22
2023-05-19T08:40:37.645Z,102741.34
2023-05-19T08:43:06.246Z,102750.09
2023-05-19T08:45:38.336Z,102731.97
2023-05-19T08:48:06.453Z,102703.03
2023-05-19T08:50:44.506Z,102700.63
2023-05-19T08:56:35.483Z,102750.38
2023-05-19T08:59:05.556Z,102706.50
2023-05-19T09:01:32.987Z,102689.03
2023-05-19T09:03:59.834Z,102705.25
2023-05-19T09:06:32.501Z,102703.03
2023-05-19T09:08:59.322Z,102719.81
2023-05-19T09:11:29.524Z,102711.81
2023-05-19T09:13:56.286Z,102731.72
2023-05-19T09:16:27.880Z,102693.28
2023-05-19T09:19:01.580Z,102731.50
2023-05-19T09:21:35.608Z,102722.91
2023-05-19T09:24:06.954Z,102702.25
2023-05-19T09:26:42.492Z,102705.84
2023-05-19T09:29:21.184Z,102690.28
2023-05-19T09:32:00.506Z,102719.91
2023-05-19T09:34:29.060Z,102719.06
2023-05-19T09:36:56.001Z,102704.25
2023-05-19T09:39:24.104Z,102686.78
2023-05-19T09:41:55.189Z,102685.81
2023-05-19T09:44:29.579Z,102697.91
2023-05-19T09:46:56.926Z,102729.50
2023-05-19T09:49:26.133Z,102706.88
2023-05-19T09:51:58.921Z,102698.09
2023-05-19T09:54:28.442Z,102685.03
2023-05-19T09:57:06.007Z,102733.81
2023-05-19T09:59:34.944Z,102732.03
2023-05-19T10:02:06.403Z,102727.78
2023-05-19T10:04:34.879Z,102708.66
2023-05-19T10:07:06.078Z,102722.59
2023-05-19T10:09:38.648Z,102717.34
2023-05-19T10:12:14.076Z,102725.22
2023-05-19T10:14:43.497Z,102727.81
2023-05-19T10:17:12.849Z,102717.41
2023-05-19T10:19:47.093Z,102678.13
2023-05-19T10:22:14.589Z,102707.75
2023-05-19T10:24:53.734Z,102672.00
2023-05-19T10:27:21.075Z,102665.03
2023-05-19T10:29:56.315Z,102688.63
2023-05-19T10:32:29.502Z,102658.94
2023-05-19T10:35:50.149Z,102662.44
2023-05-19T10:38:45.042Z,102702.53
2023-05-19T10:41:29.602Z,102660.63
2023-05-19T10:44:21.976Z,102650.19
2023-05-19T10:46:49.382Z,102687.72
2023-05-19T10:49:23.518Z,102642.41
2023-05-19T10:51:52.689Z,102636.25
2023-05-19T10:54:50.271Z,102658.06
2023-05-19T10:57:32.389Z,102659.81
2023-05-19T11:00:34.397Z,102662.44
2023-05-19T11:03:57.497Z,102672.03
2023-05-19T11:06:38.806Z,102643.22
2023-05-19T11:09:31.138Z,102665.91
2023-05-19T11:12:13.048Z,102661.53
2023-05-19T11:14:43.809Z,102671.13
2023-05-19T11:17:15.325Z,102651.09
2023-05-19T11:20:01.002Z,102639.75
2023-05-19T11:26:06.186Z,102659.81
2023-05-19T11:29:06.131Z,102633.66
2023-05-19T11:31:36.890Z,102640.63
2023-05-19T11:34:07.583Z,102637.06
2023-05-19T11:36:40.921Z,102638.84
2023-05-19T11:39:20.190Z,102643.19
2023-05-19T11:41:58.986Z,102663.22
2023-05-19T11:44:56.924Z,102643.16
2023-05-19T11:47:42.543Z,102638.75
2023-05-19T11:50:21.622Z,102619.63
2023-05-19T11:56:03.936Z,102641.47
2023-05-19T12:01:54.858Z,102621.31
2023-05-19T12:07:59.311Z,102649.31
2023-05-19T12:10:33.936Z,102631.81
2023-05-19T12:13:11.131Z,102647.53
2023-05-19T12:18:41.299Z,102644.97
2023-05-19T12:21:08.191Z,102604.00
2023-05-19T12:23:37.311Z,102613.59
2023-05-19T12:26:04.364Z,102624.91
2023-05-19T12:28:32.051Z,102602.28
2023-05-19T12:30:59.002Z,102601.41
2023-05-19T12:33:25.742Z,102597.91
2023-05-19T12:35:54.588Z,102610.09
2023-05-19T12:38:21.619Z,102582.22
2023-05-19T12:40:50.406Z,102596.16
2023-05-19T12:43:22.133Z,102590.94
2023-05-19T12:45:49.550Z,102576.13
2023-05-19T12:48:17.548Z,102598.78
2023-05-19T12:50:45.241Z,102599.63
2023-05-19T12:53:13.185Z,102579.59
2023-05-19T12:55:48.734Z,102585.63
2023-05-19T12:58:16.119Z,102627.53
2023-05-19T13:00:59.840Z,102590.84
2023-05-19T13:03:48.621Z,102627.50
2023-05-19T13:12:28.712Z,102601.41
2023-05-19T13:15:01.465Z,102588.28
2023-05-19T13:17:33.657Z,102607.50
2023-05-19T13:20:01.571Z,102597.03
2023-05-19T13:22:54.015Z,102598.78
2023-05-19T13:25:38.049Z,102572.63
2023-05-19T13:28:26.736Z,102573.50
2023-05-19T13:30:58.908Z,102609.25
2023-05-19T13:33:26.740Z,102575.25
2023-05-19T13:36:00.648Z,102597.03
2023-05-19T13:38:35.752Z,102591.78
2023-05-19T13:41:02.627Z,102598.78
2023-05-19T13:43:29.517Z,102604.88
2023-05-19T13:46:01.969Z,102595.28
2023-05-19T13:48:32.152Z,102599.63
2023-05-19T13:51:00.421Z,102589.19
2023-05-19T13:53:41.763Z,102583.09
2023-05-19T13:59:53.469Z,102583.97
2023-05-19T14:02:30.900Z,102603.13
2023-05-19T14:05:05.715Z,102583.94
2023-05-19T14:10:18.222Z,102584.84
2023-05-19T14:15:59.373Z,102576.09
2023-05-19T14:24:38.152Z,102573.50
2023-05-19T14:27:08.821Z,102576.13
2023-05-19T14:29:46.045Z,102566.53
2023-05-19T14:42:21.462Z,102556.88
2023-05-19T14:45:07.238Z,102544.69
2023-05-19T14:47:39.524Z,102547.31
2023-05-19T14:50:08.359Z,102544.75
2023-05-19T14:52:48.882Z,102540.41
2023-05-19T14:55:16.035Z,102549.13
2023-05-19T14:58:28.320Z,102548.25
2023-05-19T15:00:59.105Z,102542.13
2023-05-19T15:03:30.902Z,102547.38
2023-05-19T15:05:59.055Z,102540.41
2023-05-19T15:08:29.482Z,102535.16
2023-05-19T15:10:58.952Z,102549.97
2023-05-19T15:13:26.445Z,102543.81
2023-05-19T15:16:15.015Z,102537.72
2023-05-19T15:18:43.675Z,102545.56
2023-05-19T15:21:11.611Z,102539.53
2023-05-19T15:23:40.362Z,102511.63
2023-05-19T15:26:09.620Z,102502.09
2023-05-19T15:28:43.961Z,102516.88
2023-05-19T15:31:14.031Z,102524.72
2023-05-19T15:34:01.195Z,102530.81
2023-05-19T15:36:28.924Z,102536.94
2023-05-19T15:38:59.135Z,102517.75
2023-05-19T15:41:46.332Z,102523.84
2023-05-19T15:46:55.234Z,102503.81
2023-05-19T15:49:28.280Z,102526.47
2023-05-19T15:51:54.990Z,102524.69
2023-05-19T15:54:21.967Z,102513.41
2023-05-19T15:56:48.563Z,102523.84
2023-05-19T15:59:15.182Z,102519.50
2023-05-19T16:01:41.794Z,102521.22
2023-05-19T16:04:08.518Z,102522.97
2023-05-19T16:06:35.160Z,102505.53
2023-05-19T16:09:01.781Z,102509.00
2023-05-19T16:11:28.711Z,102495.09
2023-05-19T16:13:55.422Z,102494.22
2023-05-19T16:16:22.002Z,102498.59
2023-05-19T16:18:48.698Z,102489.88
2023-05-19T16:21:15.400Z,102505.56
2023-05-19T16:23:42.449Z,102498.56
2023-05-19T16:26:09.032Z,102491.56
2023-05-19T16:28:35.730Z,102492.44
2023-05-19T16:31:02.400Z,102491.56
2023-05-19T16:33:30.062Z,102507.22
2023-05-19T16:35:58.143Z,102493.28
2023-05-19T16:38:24.749Z,102499.28
2023-05-19T16:40:51.339Z,102496.59
2023-05-19T16:43:17.949Z,102493.97
2023-05-19T16:45:44.532Z,102489.59
2023-05-19T16:48:11.556Z,102496.56
2023-05-19T16:50:39.715Z,102488.75
2023-05-19T16:53:06.264Z,102487.91
2023-05-19T16:55:32.828Z,102498.34
2023-05-19T16:57:59.616Z,102496.63
2023-05-19T17:00:27.389Z,102486.13
2023-05-19T17:02:54.071Z,102491.22
2023-05-19T17:05:20.774Z,102485.13
2023-05-19T17:07:47.297Z,102494.72
2023-05-19T17:10:14.508Z,102492.06
2023-05-19T17:12:41.132Z,102491.16
2023-05-19T17:15:08.108Z,102496.31
2023-05-19T17:17:34.702Z,102497.19
2023-05-19T17:20:01.431Z,102496.28
2023-05-19T17:22:30.005Z,102482.31
2023-05-19T17:24:57.482Z,102497.06
2023-05-19T17:27:24.065Z,102490.09
2023-05-19T17:29:50.899Z,102496.22
2023-05-19T17:32:17.590Z,102475.31
2023-05-19T17:34:44.215Z,102488.38
2023-05-19T17:37:10.821Z,102481.38
2023-05-19T17:39:37.359Z,102489.25
2023-05-19T17:42:04.084Z,102490.06
2023-05-19T17:44:30.682Z,102496.13
2023-05-19T17:46:57.310Z,102490.91
2023-05-19T17:49:25.646Z,102497.00
2023-05-19T17:51:52.520Z,102495.19
2023-05-19T17:54:19.526Z,102497.81
2023-05-19T17:56:46.460Z,102496.97
2023-05-19T17:59:13.259Z,102495.22
2023-05-19T18:01:40.784Z,102497.88
2023-05-19T18:04:08.233Z,102488.25
2023-05-19T18:06:37.339Z,102503.94
2023-05-19T18:09:08.874Z,102495.16
2023-05-19T18:11:36.063Z,102497.75
2023-05-19T18:14:02.667Z,102486.47
2023-05-19T18:16:29.583Z,102504.78
2023-05-19T18:18:56.281Z,102506.50
2023-05-19T18:21:24.401Z,102481.25
2023-05-19T18:23:51.487Z,102510.81
2023-05-19T18:26:18.118Z,102513.31
2023-05-19T18:28:44.678Z,102513.19
2023-05-19T18:31:17.434Z,102527.06
2023-05-19T18:33:44.403Z,102516.56
2023-05-19T18:36:11.108Z,102510.34
2023-05-19T18:38:37.691Z,102520.75
2023-05-19T18:41:06.837Z,102526.03
2023-05-19T18:43:34.387Z,102533.72
2023-05-19T18:46:01.235Z,102532.75
2023-05-19T18:48:28.186Z,102542.28
2023-05-19T18:50:54.759Z,102523.06
2023-05-19T18:53:22.738Z,102528.34
2023-05-19T18:55:49.387Z,102515.06
2023-05-19T18:58:18.454Z,102540.28
2023-05-19T19:00:45.108Z,102531.50
2023-05-19T19:03:11.952Z,102549.66
2023-05-19T19:05:38.636Z,102525.19
2023-05-19T19:08:05.777Z,102536.53
2023-05-19T19:10:34.797Z,102533.84
2023-05-19T19:13:01.686Z,102550.28
2023-05-19T19:15:28.397Z,102551.06
2023-05-19T19:17:55.065Z,102550.09
2023-05-19T19:20:21.753Z,102545.72
2023-05-19T19:22:48.370Z,102557.78
2023-05-19T19:25:14.996Z,102560.38
2023-05-19T19:27:41.787Z,102566.38
2023-05-19T19:30:09.015Z,102555.00
2023-05-19T19:32:35.803Z,102569.63
2023-05-19T19:35:02.375Z,102559.06
2023-05-19T19:37:28.960Z,102575.44
2023-05-19T19:39:55.599Z,102568.34
2023-05-19T19:42:22.171Z,102576.03
2023-05-19T19:44:48.788Z,102583.78
2023-05-19T19:47:15.352Z,102576.81
2023-05-19T19:49:42.160Z,102587.16
2023-05-19T19:52:08.713Z,102600.94
2023-05-19T19:54:35.286Z,102595.63
2023-05-19T19:57:01.985Z,102597.25
2023-05-19T19:59:28.600Z,102604.09
2023-05-19T20:01:55.187Z,102597.06
2023-05-19T20:04:21.893Z,102604.84
2023-05-19T20:06:49.698Z,102608.22
2023-05-19T20:09:16.595Z,102606.41
2023-05-19T20:11:43.671Z,102613.38
2023-05-19T20:14:10.282Z,102614.06
2023-05-19T20:16:37.446Z,102613.97
2023-05-19T20:19:05.374Z,102607.88
2023-05-19T20:21:33.350Z,102612.97
2023-05-19T20:24:00.460Z,102608.47
2023-05-19T20:26:27.117Z,102623.19
2023-05-19T20:28:53.784Z,102627.50
2023-05-19T20:31:21.554Z,102632.75
2023-05-19T20:33:48.203Z,102623.84
2023-05-19T20:36:15.020Z,102632.41
2023-05-19T20:38:41.726Z,102629.63
2023-05-19T20:41:08.318Z,102626.13
2023-05-19T20:43:34.877Z,102627.69
2023-05-19T20:46:03.275Z,102633.75
2023-05-19T20:48:29.949Z,102641.59
2023-05-19T20:50:56.491Z,102637.22
2023-05-19T20:53:23.083Z,102646.69
2023-05-19T20:55:49.666Z,102644.91
2023-05-19T20:58:16.479Z,102641.34
2023-05-19T21:00:43.117Z,102634.56
2023-05-19T21:03:09.955Z,102627.41
2023-05-19T21:05:36.818Z,102624.50
2023-05-19T21:08:03.424Z,102635.81
2023-05-19T21:10:29.972Z,102647.09
2023-05-19T21:12:58.876Z,102652.28
2023-05-19T21:15:26.913Z,102645.41
2023-05-19T21:17:53.639Z,102646.06
2023-05-19T21:20:20.567Z,102634.44
2023-05-19T21:22:47.197Z,102646.63
2023-05-19T21:25:13.848Z,102658.66
2023-05-19T21:27:40.562Z,102650.88
2023-05-19T21:30:07.654Z,102635.88
2023-05-19T21:32:34.282Z,102652.34
2023-05-19T21:35:01.308Z,102649.63
2023-05-19T21:37:27.859Z,102651.31
2023-05-19T21:39:54.465Z,102665.75
2023-05-19T21:42:21.026Z,102655.13
2023-05-19T21:44:47.583Z,102662.91
2023-05-19T21:47:14.379Z,102668.69
2023-05-19T21:49:41.255Z,102673.94
2023-05-19T21:52:08.135Z,102679.00
2023-05-19T21:54:36.124Z,102686.72
2023-05-19T21:57:02.807Z,102669.88
2023-05-19T21:59:29.423Z,102676.78
2023-05-19T22:01:56.021Z,102688.00
2023-05-19T22:04:22.755Z,102661.69
2023-05-19T22:06:49.372Z,102675.63
2023-05-19T22:09:15.996Z,102678.19
2023-05-19T22:11:42.583Z,102685.09
2023-05-19T22:14:09.179Z,102657.06
2023-05-19T22:16:35.838Z,102677.03
2023-05-19T22:19:02.567Z,102679.63
2023-05-19T22:21:29.226Z,102667.16
2023-05-19T22:23:55.857Z,102678.41
2023-05-19T22:26:22.509Z,102683.66
2023-05-19T22:28:49.717Z,102675.63
2023-05-19T22:31:16.716Z,102674.50
2023-05-19T22:33:43.649Z,102661.97
2023-05-19T22:36:13.176Z,102666.97
2023-05-19T22:38:39.808Z,102665.03
2023-05-19T22:41:06.538Z,102658.06
2023-05-19T22:43:33.440Z,102624.63
2023-05-19T22:46:00.239Z,102649.97
2023-05-19T22:48:26.977Z,102656.78
2023-05-19T22:50:53.893Z,102644.38
2023-05-19T22:53:20.769Z,102664.22
2023-05-19T22:55:47.566Z,102679.03
2023-05-19T22:58:14.224Z,102666.66
2023-05-19T23:00:40.927Z,102641.94
2023-05-19T23:03:07.631Z,102676.06
2023-05-19T23:05:34.682Z,102658.25
2023-05-19T23:08:01.616Z,102664.41
2023-05-19T23:10:28.283Z,102666.84
2023-05-19T23:12:54.999Z,102662.31
2023-05-19T23:15:21.704Z,102681.63
2023-05-19T23:17:48.684Z,102642.59
2023-05-19T23:20:15.538Z,102628.50
2023-05-19T23:22:42.292Z,102672.69
2023-05-19T23:25:09.130Z,102636.75
2023-05-19T23:27:36.547Z,102679.63
2023-05-19T23:30:04.178Z,102664.47
2023-05-19T23:32:30.931Z,102672.13
2023-05-19T23:34:58.798Z,102633.34
2023-05-19T23:37:25.518Z,102686.00
2023-05-19T23:39:52.187Z,102676.25
2023-05-19T23:42:19.060Z,102646.34
2023-05-19T23:44:45.732Z,102656.84
2023-05-19T23:47:12.487Z,102655.34
2023-05-19T23:49:39.181Z,102623.69
2023-05-19T23:52:06.394Z,102643.88
2023-05-19T23:54:32.981Z,102669.09
2023-05-19T23:57:02.221Z,102631.19
2023-05-19T23:59:28.972Z,102620.69
